createdAt,value
2018-12-13T00:00:39.317Z,1018.89
2018-12-13T00:01:39.263Z,1018.85
2018-12-13T00:02:39.248Z,1018.88
2018-12-13T00:03:39.227Z,1018.85
2018-12-13T00:04:39.211Z,1018.90
2018-12-13T00:05:39.198Z,1018.86
2018-12-13T00:06:39.212Z,1018.83
2018-12-13T00:07:39.202Z,1018.84
2018-12-13T00:08:39.168Z,1018.81
2018-12-13T00:09:39.156Z,1018.84
2018-12-13T00:10:39.152Z,1018.83
2018-12-13T00:11:39.173Z,1018.77
2018-12-13T00:12:39.144Z,1018.77
2018-12-13T00:13:39.118Z,1018.76
2018-12-13T00:14:39.106Z,1018.78
2018-12-13T00:15:39.114Z,1018.75
2018-12-13T00:16:39.621Z,1018.75
2018-12-13T00:17:39.303Z,1018.72
2018-12-13T00:18:39.055Z,1018.76
2018-12-13T00:19:39.622Z,1018.76
2018-12-13T00:20:39.040Z,1018.70
2018-12-13T00:21:39.024Z,1018.70
2018-12-13T00:22:39.143Z,1018.68
2018-12-13T00:23:39.005Z,1018.71
2018-12-13T00:24:38.992Z,1018.70
2018-12-13T00:25:38.985Z,1018.66
2018-12-13T00:26:38.967Z,1018.63
2018-12-13T00:27:38.979Z,1018.62
2018-12-13T00:28:39.624Z,1018.65
2018-12-13T00:29:39.684Z,1018.64
2018-12-13T00:30:39.669Z,1018.58
2018-12-13T00:31:39.720Z,1018.64
2018-12-13T00:32:39.200Z,1018.65
2018-12-13T00:33:39.656Z,1018.58
2018-12-13T00:34:39.653Z,1018.59
2018-12-13T00:35:39.638Z,1018.61
2018-12-13T00:36:39.829Z,1018.56
2018-12-13T00:37:38.881Z,1018.59
2018-12-13T00:38:38.843Z,1018.59
2018-12-13T00:39:38.832Z,1018.57
2018-12-13T00:40:38.869Z,1018.58
2018-12-13T00:41:38.860Z,1018.55
2018-12-13T00:42:38.899Z,1018.55
2018-12-13T00:43:38.802Z,1018.56
2018-12-13T00:44:38.774Z,1018.49
2018-12-13T00:45:38.768Z,1018.54
2018-12-13T00:46:38.755Z,1018.53
2018-12-13T00:47:38.763Z,1018.56
2018-12-13T00:48:38.732Z,1018.59
2018-12-13T00:49:38.720Z,1018.55
2018-12-13T00:50:39.630Z,1018.56
2018-12-13T00:51:39.671Z,1018.58
2018-12-13T00:52:39.281Z,1018.55
2018-12-13T00:53:39.680Z,1018.56
2018-12-13T00:54:39.649Z,1018.55
2018-12-13T00:55:39.633Z,1018.59
2018-12-13T00:56:39.624Z,1018.56
2018-12-13T00:57:39.169Z,1018.54
2018-12-13T00:58:38.626Z,1018.52
2018-12-13T00:59:39.138Z,1018.48
2018-12-13T01:00:39.126Z,1018.48
2018-12-13T01:01:39.125Z,1018.50
2018-12-13T01:02:38.593Z,1018.47
2018-12-13T01:03:38.571Z,1018.45
2018-12-13T01:04:38.560Z,1018.48
2018-12-13T01:05:39.130Z,1018.49
2018-12-13T01:06:39.130Z,1018.49
2018-12-13T01:07:38.642Z,1018.40
2018-12-13T01:08:39.164Z,1018.43
2018-12-13T01:09:39.130Z,1018.43
2018-12-13T01:10:39.126Z,1018.37
2018-12-13T01:11:39.128Z,1018.37
2018-12-13T01:12:38.643Z,1018.33
2018-12-13T01:13:39.130Z,1018.32
2018-12-13T01:14:39.123Z,1018.26
2018-12-13T01:15:38.445Z,1018.26
2018-12-13T01:16:38.429Z,1018.28
2018-12-13T01:17:38.657Z,1018.32
2018-12-13T01:18:38.416Z,1018.26
2018-12-13T01:19:38.397Z,1018.25
2018-12-13T01:20:38.397Z,1018.26
2018-12-13T01:21:38.381Z,1018.32
2018-12-13T01:22:38.386Z,1018.32
2018-12-13T01:23:39.146Z,1018.34
2018-12-13T01:24:38.344Z,1018.35
2018-12-13T01:25:38.340Z,1018.31
2018-12-13T01:26:38.340Z,1018.39
2018-12-13T01:27:38.388Z,1018.33
2018-12-13T01:28:38.315Z,1018.34
2018-12-13T01:29:39.132Z,1018.38
2018-12-13T01:30:39.173Z,1018.38
2018-12-13T01:31:39.136Z,1018.33
2018-12-13T01:32:38.676Z,1018.31
2018-12-13T01:33:39.236Z,1018.34
2018-12-13T01:34:39.132Z,1018.32
2018-12-13T01:35:39.137Z,1018.32
2018-12-13T01:36:38.217Z,1018.30
2018-12-13T01:37:38.220Z,1018.30
2018-12-13T01:38:39.133Z,1018.26
2018-12-13T01:39:39.157Z,1018.25
2018-12-13T01:40:38.180Z,1018.22
2018-12-13T01:41:39.160Z,1018.22
2018-12-13T01:42:38.642Z,1018.21
2018-12-13T01:43:38.138Z,1018.21
2018-12-13T01:44:38.231Z,1018.22
2018-12-13T01:45:38.630Z,1018.15
2018-12-13T01:46:38.628Z,1018.16
2018-12-13T01:47:38.129Z,1018.16
2018-12-13T01:48:38.631Z,1018.14
2018-12-13T01:49:38.743Z,1018.15
2018-12-13T01:50:38.647Z,1018.14
2018-12-13T01:51:38.687Z,1018.15
2018-12-13T01:52:38.122Z,1018.15
2018-12-13T01:53:38.033Z,1018.11
2018-12-13T01:54:38.036Z,1018.13
2018-12-13T01:55:38.011Z,1018.14
2018-12-13T01:56:38.002Z,1018.08
2018-12-13T01:57:38.003Z,1018.08
2018-12-13T01:58:37.981Z,1018.05
2018-12-13T01:59:37.980Z,1018.06
2018-12-13T02:00:37.959Z,1018.06
2018-12-13T02:01:37.948Z,1018.06
2018-12-13T02:02:37.950Z,1018.07
2018-12-13T02:03:37.928Z,1018.09
2018-12-13T02:04:37.934Z,1018.07
2018-12-13T02:05:37.907Z,1018.09
2018-12-13T02:06:37.894Z,1018.02
2018-12-13T02:07:37.899Z,1018.04
2018-12-13T02:08:38.641Z,1018.08
2018-12-13T02:09:37.949Z,1018.03
2018-12-13T02:10:37.852Z,1018.04
2018-12-13T02:11:37.837Z,1018.03
2018-12-13T02:12:38.149Z,1017.97
2018-12-13T02:13:37.820Z,1018.03
2018-12-13T02:14:37.827Z,1017.99
2018-12-13T02:15:38.630Z,1018.02
2018-12-13T02:16:37.785Z,1018.02
2018-12-13T02:17:38.142Z,1017.97
2018-12-13T02:18:37.766Z,1017.95
2018-12-13T02:19:37.765Z,1017.92
2018-12-13T02:20:38.637Z,1017.93
2018-12-13T02:21:37.729Z,1017.95
2018-12-13T02:22:38.632Z,1017.96
2018-12-13T02:23:38.148Z,1017.98
2018-12-13T02:24:37.791Z,1017.96
2018-12-13T02:25:37.687Z,1017.97
2018-12-13T02:26:37.679Z,1017.92
2018-12-13T02:27:37.667Z,1017.93
2018-12-13T02:28:38.171Z,1017.92
2018-12-13T02:29:38.645Z,1017.86
2018-12-13T02:30:37.720Z,1017.87
2018-12-13T02:31:38.131Z,1017.88
2018-12-13T02:32:37.613Z,1017.85
2018-12-13T02:33:37.657Z,1017.83
2018-12-13T02:34:38.135Z,1017.84
2018-12-13T02:35:38.145Z,1017.83
2018-12-13T02:36:38.131Z,1017.81
2018-12-13T02:37:38.149Z,1017.84
2018-12-13T02:38:37.564Z,1017.78
2018-12-13T02:39:38.145Z,1017.79
2018-12-13T02:40:37.562Z,1017.82
2018-12-13T02:41:38.127Z,1017.84
2018-12-13T02:42:37.516Z,1017.83
2018-12-13T02:43:37.565Z,1017.82
2018-12-13T02:44:38.138Z,1017.81
2018-12-13T02:45:37.471Z,1017.82
2018-12-13T02:46:38.131Z,1017.75
2018-12-13T02:47:37.461Z,1017.74
2018-12-13T02:48:37.462Z,1017.77
2018-12-13T02:49:37.427Z,1017.76
2018-12-13T02:50:38.140Z,1017.72
2018-12-13T02:51:38.171Z,1017.69
2018-12-13T02:52:38.160Z,1017.71
2018-12-13T02:53:37.762Z,1017.70
2018-12-13T02:54:38.250Z,1017.73
2018-12-13T02:55:38.204Z,1017.67
2018-12-13T02:56:38.166Z,1017.71
2018-12-13T02:57:38.164Z,1017.70
2018-12-13T02:58:37.675Z,1017.70
2018-12-13T02:59:38.147Z,1017.71
2018-12-13T03:00:37.307Z,1017.67
2018-12-13T03:01:37.316Z,1017.73
2018-12-13T03:02:37.287Z,1017.70
2018-12-13T03:03:37.299Z,1017.74
2018-12-13T03:04:37.276Z,1017.68
2018-12-13T03:05:37.258Z,1017.72
2018-12-13T03:06:37.281Z,1017.70
2018-12-13T03:07:38.149Z,1017.68
2018-12-13T03:08:37.652Z,1017.64
2018-12-13T03:09:37.216Z,1017.68
2018-12-13T03:10:37.202Z,1017.66
2018-12-13T03:11:37.204Z,1017.64
2018-12-13T03:12:37.175Z,1017.63
2018-12-13T03:13:37.183Z,1017.56
2018-12-13T03:14:38.135Z,1017.60
2018-12-13T03:15:38.133Z,1017.60
2018-12-13T03:16:37.160Z,1017.64
2018-12-13T03:17:37.123Z,1017.62
2018-12-13T03:18:37.125Z,1017.56
2018-12-13T03:19:37.095Z,1017.51
2018-12-13T03:20:37.636Z,1017.51
2018-12-13T03:21:37.105Z,1017.47
2018-12-13T03:22:37.072Z,1017.54
2018-12-13T03:23:37.070Z,1017.48
2018-12-13T03:24:37.639Z,1017.48
2018-12-13T03:25:37.040Z,1017.40
2018-12-13T03:26:37.720Z,1017.44
2018-12-13T03:27:37.646Z,1017.45
2018-12-13T03:28:37.146Z,1017.46
2018-12-13T03:29:37.658Z,1017.38
2018-12-13T03:30:37.657Z,1017.41
2018-12-13T03:31:36.987Z,1017.39
2018-12-13T03:32:37.649Z,1017.38
2018-12-13T03:33:36.972Z,1017.34
2018-12-13T03:34:36.936Z,1017.36
2018-12-13T03:35:37.635Z,1017.36
2018-12-13T03:36:36.915Z,1017.33
2018-12-13T03:37:36.960Z,1017.26
2018-12-13T03:38:36.915Z,1017.30
2018-12-13T03:39:37.648Z,1017.30
2018-12-13T03:40:36.871Z,1017.26
2018-12-13T03:41:37.648Z,1017.28
2018-12-13T03:42:37.696Z,1017.26
2018-12-13T03:43:37.145Z,1017.26
2018-12-13T03:44:37.643Z,1017.22
2018-12-13T03:45:37.648Z,1017.26
2018-12-13T03:46:37.637Z,1017.27
2018-12-13T03:47:37.733Z,1017.21
2018-12-13T03:48:37.179Z,1017.20
2018-12-13T03:49:37.635Z,1017.21
2018-12-13T03:50:37.634Z,1017.25
2018-12-13T03:51:37.673Z,1017.17
2018-12-13T03:52:37.634Z,1017.17
2018-12-13T03:53:36.751Z,1017.26
2018-12-13T03:54:37.641Z,1017.24
2018-12-13T03:55:37.638Z,1017.18
2018-12-13T03:56:36.695Z,1017.19
2018-12-13T03:57:36.697Z,1017.15
2018-12-13T03:58:37.162Z,1017.17
2018-12-13T03:59:37.642Z,1017.17
2018-12-13T04:00:37.660Z,1017.15
2018-12-13T04:01:37.183Z,1017.19
2018-12-13T04:02:37.138Z,1017.16
2018-12-13T04:03:36.646Z,1017.19
2018-12-13T04:04:36.601Z,1017.18
2018-12-13T04:05:37.148Z,1017.17
2018-12-13T04:06:37.163Z,1017.19
2018-12-13T04:07:37.141Z,1017.20
2018-12-13T04:08:36.580Z,1017.18
2018-12-13T04:09:37.142Z,1017.16
2018-12-13T04:10:36.544Z,1017.19
2018-12-13T04:11:36.526Z,1017.15
2018-12-13T04:12:36.516Z,1017.15
2018-12-13T04:13:36.526Z,1017.05
2018-12-13T04:14:37.137Z,1017.15
2018-12-13T04:15:36.480Z,1017.16
2018-12-13T04:16:36.467Z,1017.12
2018-12-13T04:17:37.135Z,1017.15
2018-12-13T04:18:36.653Z,1017.17
2018-12-13T04:19:36.443Z,1017.14
2018-12-13T04:20:36.433Z,1017.17
2018-12-13T04:21:37.144Z,1017.16
2018-12-13T04:22:37.137Z,1017.08
2018-12-13T04:23:36.409Z,1017.16
2018-12-13T04:24:36.386Z,1017.13
2018-12-13T04:25:36.369Z,1017.15
2018-12-13T04:26:37.137Z,1017.16
2018-12-13T04:27:37.144Z,1017.16
2018-12-13T04:28:37.167Z,1017.13
2018-12-13T04:29:36.340Z,1017.15
2018-12-13T04:30:37.167Z,1017.08
2018-12-13T04:31:37.162Z,1017.08
2018-12-13T04:32:37.136Z,1017.06
2018-12-13T04:33:36.289Z,1017.08
2018-12-13T04:34:36.654Z,1017.08
2018-12-13T04:35:37.139Z,1017.06
2018-12-13T04:36:37.147Z,1017.07
2018-12-13T04:37:37.195Z,1017.05
2018-12-13T04:38:37.213Z,1017.06
2018-12-13T04:39:36.706Z,1017.07
2018-12-13T04:40:36.212Z,1017.02
2018-12-13T04:41:36.197Z,1017.04
2018-12-13T04:42:36.193Z,1017.03
2018-12-13T04:43:36.175Z,1016.93
2018-12-13T04:44:37.834Z,1017.03
2018-12-13T04:45:36.155Z,1017.10
2018-12-13T04:46:36.154Z,1017.03
2018-12-13T04:47:36.139Z,1016.98
2018-12-13T04:48:36.134Z,1016.99
2018-12-13T04:49:36.639Z,1016.97
2018-12-13T04:50:36.640Z,1016.96
2018-12-13T04:51:36.670Z,1016.99
2018-12-13T04:52:36.680Z,1017.01
2018-12-13T04:53:36.646Z,1016.94
2018-12-13T04:54:36.077Z,1016.88
2018-12-13T04:55:36.646Z,1016.96
2018-12-13T04:56:36.640Z,1016.95
2018-12-13T04:57:36.027Z,1016.95
2018-12-13T04:58:36.650Z,1016.93
2018-12-13T04:59:36.043Z,1016.90
2018-12-13T05:00:35.988Z,1016.94
2018-12-13T05:01:36.659Z,1016.90
2018-12-13T05:02:36.638Z,1016.86
2018-12-13T05:03:36.673Z,1016.90
2018-12-13T05:04:36.161Z,1016.91
2018-12-13T05:05:36.698Z,1016.92
2018-12-13T05:06:35.931Z,1016.89
2018-12-13T05:07:41.495Z,1016.84
2018-12-13T05:08:35.902Z,1016.87
2018-12-13T05:09:36.652Z,1016.84
2018-12-13T05:10:35.887Z,1016.76
2018-12-13T05:11:36.638Z,1016.85
2018-12-13T05:12:36.643Z,1016.78
2018-12-13T05:13:35.850Z,1016.82
2018-12-13T05:14:35.858Z,1016.81
2018-12-13T05:15:35.828Z,1016.89
2018-12-13T05:16:35.816Z,1016.85
2018-12-13T05:17:35.826Z,1016.89
2018-12-13T05:18:36.667Z,1016.90
2018-12-13T05:19:36.162Z,1016.86
2018-12-13T05:20:36.646Z,1016.90
2018-12-13T05:21:35.768Z,1016.93
2018-12-13T05:22:36.641Z,1016.88
2018-12-13T05:23:35.739Z,1016.86
2018-12-13T05:24:36.155Z,1016.88
2018-12-13T05:25:36.647Z,1016.78
2018-12-13T05:26:36.646Z,1016.85
2018-12-13T05:27:36.641Z,1016.79
2018-12-13T05:28:35.706Z,1016.82
2018-12-13T05:29:36.165Z,1016.88
2018-12-13T05:30:36.640Z,1016.84
2018-12-13T05:31:36.718Z,1016.89
2018-12-13T05:32:36.676Z,1016.80
2018-12-13T05:33:36.140Z,1016.89
2018-12-13T05:34:35.665Z,1016.81
2018-12-13T05:35:36.163Z,1016.88
2018-12-13T05:36:36.166Z,1016.87
2018-12-13T05:37:36.173Z,1016.87
2018-12-13T05:38:36.194Z,1016.87
2018-12-13T05:39:35.699Z,1016.89
2018-12-13T05:40:36.146Z,1016.83
2018-12-13T05:41:36.149Z,1016.89
2018-12-13T05:42:36.144Z,1016.90
2018-12-13T05:43:36.215Z,1016.89
2018-12-13T05:44:35.662Z,1016.82
2018-12-13T05:45:36.150Z,1016.89
2018-12-13T05:46:35.496Z,1016.95
2018-12-13T05:47:36.145Z,1016.98
2018-12-13T05:48:35.494Z,1016.91
2018-12-13T05:49:35.496Z,1017.00
2018-12-13T05:50:36.153Z,1016.98
2018-12-13T05:51:36.181Z,1016.99
2018-12-13T05:52:36.212Z,1016.99
2018-12-13T05:53:36.185Z,1017.03
2018-12-13T05:54:35.668Z,1017.01
2018-12-13T05:55:36.157Z,1017.01
2018-12-13T05:56:36.147Z,1017.02
2018-12-13T05:57:36.150Z,1016.92
2018-12-13T05:58:36.151Z,1016.92
2018-12-13T05:59:35.370Z,1016.90
2018-12-13T06:00:36.145Z,1016.91
2018-12-13T06:01:35.342Z,1016.90
2018-12-13T06:02:35.330Z,1016.87
2018-12-13T06:03:36.143Z,1016.89
2018-12-13T06:04:35.342Z,1016.89
2018-12-13T06:05:35.305Z,1016.85
2018-12-13T06:06:36.151Z,1016.80
2018-12-13T06:07:36.145Z,1016.84
2018-12-13T06:08:36.142Z,1016.77
2018-12-13T06:09:35.273Z,1016.85
2018-12-13T06:10:36.144Z,1016.83
2018-12-13T06:11:35.235Z,1016.81
2018-12-13T06:12:36.147Z,1016.81
2018-12-13T06:13:36.150Z,1016.74
2018-12-13T06:14:35.212Z,1016.80
2018-12-13T06:15:35.184Z,1016.77
2018-12-13T06:16:35.173Z,1016.83
2018-12-13T06:17:35.167Z,1016.87
2018-12-13T06:18:35.152Z,1016.86
2018-12-13T06:19:35.180Z,1016.81
2018-12-13T06:20:35.136Z,1016.80
2018-12-13T06:21:37.038Z,1016.82
2018-12-13T06:22:35.112Z,1016.81
2018-12-13T06:23:35.098Z,1016.82
2018-12-13T06:24:35.109Z,1016.84
2018-12-13T06:25:35.088Z,1016.77
2018-12-13T06:26:35.655Z,1016.82
2018-12-13T06:27:35.064Z,1016.84
2018-12-13T06:28:35.660Z,1016.87
2018-12-13T06:29:41.673Z,1016.86
2018-12-13T06:30:35.055Z,1016.84
2018-12-13T06:31:35.695Z,1016.86
2018-12-13T06:32:35.807Z,1016.86
2018-12-13T06:33:35.828Z,1016.92
2018-12-13T06:34:35.114Z,1016.84
2018-12-13T06:35:35.673Z,1016.92
2018-12-13T06:36:34.976Z,1016.85
2018-12-13T06:37:34.948Z,1016.91
2018-12-13T06:38:34.947Z,1016.94
2018-12-13T06:39:34.937Z,1016.86
2018-12-13T06:40:34.946Z,1016.87
2018-12-13T06:41:34.916Z,1016.88
2018-12-13T06:42:34.891Z,1016.87
2018-12-13T06:43:34.888Z,1016.87
2018-12-13T06:44:34.872Z,1016.90
2018-12-13T06:45:34.875Z,1016.87
2018-12-13T06:46:34.852Z,1016.84
2018-12-13T06:47:34.838Z,1016.86
2018-12-13T06:48:34.826Z,1016.81
2018-12-13T06:49:34.816Z,1016.84
2018-12-13T06:50:34.831Z,1016.82
2018-12-13T06:51:34.816Z,1016.82
2018-12-13T06:52:35.671Z,1016.86
2018-12-13T06:53:34.795Z,1016.85
2018-12-13T06:54:34.776Z,1016.79
2018-12-13T06:55:34.786Z,1016.86
2018-12-13T06:56:34.786Z,1016.86
2018-12-13T06:57:34.733Z,1016.84
2018-12-13T06:58:34.768Z,1016.79
2018-12-13T06:59:34.716Z,1016.82
2018-12-13T07:00:34.708Z,1016.89
2018-12-13T07:01:34.687Z,1016.88
2018-12-13T07:02:34.675Z,1016.88
2018-12-13T07:03:34.664Z,1016.85
2018-12-13T07:04:34.660Z,1016.85
2018-12-13T07:05:34.702Z,1016.73
2018-12-13T07:06:34.678Z,1016.86
2018-12-13T07:07:34.622Z,1016.87
2018-12-13T07:08:34.610Z,1016.93
2018-12-13T07:09:34.612Z,1016.84
2018-12-13T07:10:34.606Z,1016.94
2018-12-13T07:11:34.574Z,1016.94
2018-12-13T07:12:34.569Z,1016.89
2018-12-13T07:13:35.152Z,1016.93
2018-12-13T07:14:35.193Z,1016.93
2018-12-13T07:15:34.548Z,1016.92
2018-12-13T07:16:35.182Z,1016.98
2018-12-13T07:17:35.152Z,1016.96
2018-12-13T07:18:35.150Z,1016.97
2018-12-13T07:19:34.581Z,1016.95
2018-12-13T07:20:34.677Z,1016.97
2018-12-13T07:21:35.152Z,1016.97
2018-12-13T07:22:35.172Z,1016.94
2018-12-13T07:23:34.448Z,1017.01
2018-12-13T07:24:34.460Z,1016.98
2018-12-13T07:25:34.457Z,1016.96
2018-12-13T07:26:35.209Z,1017.02
2018-12-13T07:27:35.160Z,1016.95
2018-12-13T07:28:34.454Z,1017.06
2018-12-13T07:29:35.246Z,1017.02
2018-12-13T07:30:34.456Z,1017.03
2018-12-13T07:31:34.406Z,1017.12
2018-12-13T07:32:34.413Z,1017.09
2018-12-13T07:33:34.350Z,1017.13
2018-12-13T07:34:34.325Z,1017.10
2018-12-13T07:35:34.333Z,1017.14
2018-12-13T07:36:34.304Z,1017.12
2018-12-13T07:37:34.294Z,1017.19
2018-12-13T07:38:34.281Z,1017.13
2018-12-13T07:39:34.268Z,1017.14
2018-12-13T07:40:34.663Z,1017.17
2018-12-13T07:41:35.166Z,1017.16
2018-12-13T07:42:35.165Z,1017.18
2018-12-13T07:43:35.159Z,1017.19
2018-12-13T07:44:35.148Z,1017.19
2018-12-13T07:45:34.663Z,1017.11
2018-12-13T07:46:35.208Z,1017.19
2018-12-13T07:47:34.187Z,1017.20
2018-12-13T07:48:35.194Z,1017.20
2018-12-13T07:49:34.160Z,1017.16
2018-12-13T07:50:34.162Z,1017.18
2018-12-13T07:51:34.147Z,1017.13
2018-12-13T07:52:34.649Z,1017.15
2018-12-13T07:53:34.763Z,1017.13
2018-12-13T07:54:34.125Z,1017.19
2018-12-13T07:55:34.306Z,1017.16
2018-12-13T07:56:34.842Z,1017.19
2018-12-13T07:57:34.733Z,1017.18
2018-12-13T07:58:34.723Z,1017.23
2018-12-13T07:59:34.067Z,1017.19
2018-12-13T08:00:34.051Z,1017.21
2018-12-13T08:01:34.027Z,1017.17
2018-12-13T08:02:34.016Z,1017.25
2018-12-13T08:03:34.007Z,1017.24
2018-12-13T08:04:33.996Z,1017.24
2018-12-13T08:05:34.166Z,1017.25
2018-12-13T08:06:33.979Z,1017.21
2018-12-13T08:07:35.481Z,1017.23
2018-12-13T08:08:33.959Z,1017.22
2018-12-13T08:09:33.949Z,1017.24
2018-12-13T08:10:34.684Z,1017.22
2018-12-13T08:11:33.921Z,1017.22
2018-12-13T08:12:33.930Z,1017.15
2018-12-13T08:13:33.901Z,1017.23
2018-12-13T08:14:34.653Z,1017.21
2018-12-13T08:15:33.901Z,1017.23
2018-12-13T08:16:33.866Z,1017.14
2018-12-13T08:17:33.862Z,1017.25
2018-12-13T08:18:34.658Z,1017.24
2018-12-13T08:19:33.831Z,1017.27
2018-12-13T08:20:34.168Z,1017.30
2018-12-13T08:21:33.813Z,1017.29
2018-12-13T08:22:34.658Z,1017.27
2018-12-13T08:23:33.801Z,1017.33
2018-12-13T08:24:34.837Z,1017.34
2018-12-13T08:25:34.255Z,1017.35
2018-12-13T08:26:34.819Z,1017.25
2018-12-13T08:27:33.783Z,1017.28
2018-12-13T08:28:33.851Z,1017.27
2018-12-13T08:29:33.847Z,1017.27
2018-12-13T08:30:33.821Z,1017.24
2018-12-13T08:31:33.711Z,1017.27
2018-12-13T08:32:33.697Z,1017.30
2018-12-13T08:33:33.693Z,1017.17
2018-12-13T08:34:33.686Z,1017.26
2018-12-13T08:35:33.699Z,1017.26
2018-12-13T08:36:33.652Z,1017.25
2018-12-13T08:37:33.655Z,1017.24
2018-12-13T08:38:33.645Z,1017.29
2018-12-13T08:39:33.617Z,1017.34
2018-12-13T08:40:33.627Z,1017.27
2018-12-13T08:41:33.596Z,1017.35
2018-12-13T08:42:33.588Z,1017.32
2018-12-13T08:43:33.573Z,1017.29
2018-12-13T08:44:33.574Z,1017.35
2018-12-13T08:45:33.561Z,1017.24
2018-12-13T08:46:36.476Z,1017.30
2018-12-13T08:47:33.538Z,1017.32
2018-12-13T08:48:33.524Z,1017.32
2018-12-13T08:49:33.515Z,1017.28
2018-12-13T08:50:34.735Z,1017.30
2018-12-13T08:51:33.593Z,1017.28
2018-12-13T08:52:33.500Z,1017.31
2018-12-13T08:53:33.467Z,1017.31
2018-12-13T08:54:33.457Z,1017.26
2018-12-13T08:55:33.461Z,1017.28
2018-12-13T08:56:33.462Z,1017.23
2018-12-13T08:57:34.162Z,1017.29
2018-12-13T08:58:33.492Z,1017.28
2018-12-13T08:59:34.374Z,1017.27
2018-12-13T09:00:34.217Z,1017.24
2018-12-13T09:01:33.668Z,1017.29
2018-12-13T09:02:34.223Z,1017.25
2018-12-13T09:03:33.363Z,1017.23
2018-12-13T09:04:33.357Z,1017.26
2018-12-13T09:05:34.220Z,1017.27
2018-12-13T09:06:33.349Z,1017.28
2018-12-13T09:07:34.162Z,1017.20
2018-12-13T09:08:33.754Z,1017.27
2018-12-13T09:09:33.300Z,1017.29
2018-12-13T09:10:33.378Z,1017.30
2018-12-13T09:11:33.294Z,1017.30
2018-12-13T09:12:33.263Z,1017.30
2018-12-13T09:13:34.157Z,1017.35
2018-12-13T09:14:34.168Z,1017.35
2018-12-13T09:15:34.151Z,1017.19
2018-12-13T09:16:33.673Z,1017.30
2018-12-13T09:17:34.159Z,1017.26
2018-12-13T09:18:33.202Z,1017.26
2018-12-13T09:19:34.178Z,1017.23
2018-12-13T09:20:33.174Z,1017.22
2018-12-13T09:21:34.186Z,1017.24
2018-12-13T09:22:33.160Z,1017.25
2018-12-13T09:23:33.180Z,1017.21
2018-12-13T09:24:33.669Z,1017.18
2018-12-13T09:25:33.134Z,1017.16
2018-12-13T09:26:33.129Z,1017.17
2018-12-13T09:27:33.684Z,1017.17
2018-12-13T09:28:33.665Z,1017.15
2018-12-13T09:29:33.713Z,1017.16
2018-12-13T09:30:33.660Z,1017.11
2018-12-13T09:31:33.090Z,1017.15
2018-12-13T09:32:33.083Z,1017.19
2018-12-13T09:33:33.658Z,1017.21
2018-12-13T09:34:33.034Z,1017.20
2018-12-13T09:35:33.018Z,1017.23
2018-12-13T09:36:33.186Z,1017.20
2018-12-13T09:37:33.655Z,1017.19
2018-12-13T09:38:39.707Z,1017.18
2018-12-13T09:39:32.972Z,1017.19
2018-12-13T09:40:32.959Z,1017.21
2018-12-13T09:41:32.969Z,1017.18
2018-12-13T09:42:33.658Z,1017.18
2018-12-13T09:43:32.926Z,1017.09
2018-12-13T09:44:32.927Z,1017.18
2018-12-13T09:45:33.673Z,1017.08
2018-12-13T09:46:33.178Z,1017.10
2018-12-13T09:47:32.888Z,1017.15
2018-12-13T09:48:32.873Z,1017.17
2018-12-13T09:49:32.867Z,1017.11
2018-12-13T09:50:32.873Z,1017.14
2018-12-13T09:51:32.857Z,1017.10
2018-12-13T09:52:32.835Z,1017.08
2018-12-13T09:53:32.884Z,1017.13
2018-12-13T09:54:33.665Z,1017.17
2018-12-13T09:55:33.694Z,1017.20
2018-12-13T09:56:33.204Z,1017.15
2018-12-13T09:57:33.689Z,1017.15
2018-12-13T09:58:33.658Z,1017.13
2018-12-13T09:59:33.657Z,1017.16
2018-12-13T10:00:33.663Z,1017.13
2018-12-13T10:01:32.751Z,1017.11
2018-12-13T10:02:32.725Z,1017.10
2018-12-13T10:03:32.710Z,1017.11
2018-12-13T10:04:33.672Z,1017.10
2018-12-13T10:05:32.710Z,1017.10
2018-12-13T10:06:32.717Z,1017.05
2018-12-13T10:07:32.670Z,1017.06
2018-12-13T10:08:33.170Z,1017.02
2018-12-13T10:09:32.645Z,1017.03
2018-12-13T10:10:32.664Z,1016.96
2018-12-13T10:11:32.676Z,1016.96
2018-12-13T10:12:33.171Z,1017.00
2018-12-13T10:13:33.161Z,1016.99
2018-12-13T10:14:33.171Z,1016.99
2018-12-13T10:15:33.167Z,1017.00
2018-12-13T10:16:32.701Z,1016.97
2018-12-13T10:17:32.563Z,1016.94
2018-12-13T10:18:33.185Z,1016.94
2018-12-13T10:19:33.160Z,1016.93
2018-12-13T10:20:33.176Z,1016.92
2018-12-13T10:21:32.690Z,1016.95
2018-12-13T10:22:33.164Z,1016.89
2018-12-13T10:23:32.507Z,1016.90
2018-12-13T10:24:32.497Z,1016.88
2018-12-13T10:25:32.481Z,1016.89
2018-12-13T10:26:32.808Z,1016.87
2018-12-13T10:27:33.167Z,1016.84
2018-12-13T10:28:33.165Z,1016.86
2018-12-13T10:29:32.434Z,1016.86
2018-12-13T10:30:32.426Z,1016.81
2018-12-13T10:31:32.425Z,1016.76
2018-12-13T10:32:32.413Z,1016.80
2018-12-13T10:33:32.388Z,1016.80
2018-12-13T10:34:33.167Z,1016.78
2018-12-13T10:35:33.157Z,1016.75
2018-12-13T10:36:32.400Z,1016.80
2018-12-13T10:37:32.342Z,1016.69
2018-12-13T10:38:33.208Z,1016.75
2018-12-13T10:39:32.321Z,1016.70
2018-12-13T10:40:32.315Z,1016.76
2018-12-13T10:41:32.330Z,1016.68
2018-12-13T10:42:32.294Z,1016.71
2018-12-13T10:43:32.278Z,1016.69
2018-12-13T10:44:33.175Z,1016.75
2018-12-13T10:45:32.264Z,1016.72
2018-12-13T10:46:32.701Z,1016.72
2018-12-13T10:47:32.239Z,1016.72
2018-12-13T10:48:33.160Z,1016.66
2018-12-13T10:49:32.230Z,1016.67
2018-12-13T10:50:32.201Z,1016.68
2018-12-13T10:51:32.211Z,1016.67
2018-12-13T10:52:33.194Z,1016.68
2018-12-13T10:53:32.243Z,1016.68
2018-12-13T10:54:32.165Z,1016.61
2018-12-13T10:55:32.683Z,1016.56
2018-12-13T10:56:32.148Z,1016.48
2018-12-13T10:57:32.174Z,1016.57
2018-12-13T10:58:32.258Z,1016.57
2018-12-13T10:59:32.104Z,1016.55
2018-12-13T11:00:32.095Z,1016.54
2018-12-13T11:01:32.103Z,1016.53
2018-12-13T11:02:32.184Z,1016.57
2018-12-13T11:03:32.062Z,1016.56
2018-12-13T11:04:32.050Z,1016.43
2018-12-13T11:05:32.042Z,1016.53
2018-12-13T11:06:32.670Z,1016.53
2018-12-13T11:07:32.178Z,1016.50
2018-12-13T11:08:32.665Z,1016.48
2018-12-13T11:09:31.993Z,1016.53
2018-12-13T11:10:31.986Z,1016.44
2018-12-13T11:11:32.671Z,1016.46
2018-12-13T11:12:31.985Z,1016.42
2018-12-13T11:13:31.959Z,1016.42
2018-12-13T11:14:31.965Z,1016.46
2018-12-13T11:15:31.958Z,1016.48
2018-12-13T11:16:31.930Z,1016.44
2018-12-13T11:17:32.699Z,1016.41
2018-12-13T11:18:31.901Z,1016.40
2018-12-13T11:19:31.897Z,1016.39
2018-12-13T11:20:32.660Z,1016.41
2018-12-13T11:21:32.669Z,1016.48
2018-12-13T11:22:31.874Z,1016.42
2018-12-13T11:23:31.847Z,1016.47
2018-12-13T11:24:32.664Z,1016.35
2018-12-13T11:25:31.842Z,1016.33
2018-12-13T11:26:32.679Z,1016.41
2018-12-13T11:27:31.820Z,1016.32
2018-12-13T11:28:32.677Z,1016.35
2018-12-13T11:29:32.666Z,1016.39
2018-12-13T11:30:31.772Z,1016.37
2018-12-13T11:31:32.675Z,1016.32
2018-12-13T11:32:31.757Z,1016.36
2018-12-13T11:33:31.751Z,1016.30
2018-12-13T11:34:32.662Z,1016.29
2018-12-13T11:35:31.718Z,1016.34
2018-12-13T11:36:31.736Z,1016.28
2018-12-13T11:37:31.713Z,1016.34
2018-12-13T11:38:31.684Z,1016.38
2018-12-13T11:39:31.672Z,1016.35
2018-12-13T11:40:31.664Z,1016.35
2018-12-13T11:41:31.667Z,1016.26
2018-12-13T11:42:32.177Z,1016.25
2018-12-13T11:43:31.644Z,1016.26
2018-12-13T11:44:31.615Z,1016.20
2018-12-13T11:45:31.610Z,1016.25
2018-12-13T11:46:32.173Z,1016.20
2018-12-13T11:47:31.615Z,1016.13
2018-12-13T11:48:32.173Z,1016.19
2018-12-13T11:49:31.563Z,1016.19
2018-12-13T11:50:31.550Z,1016.10
2018-12-13T11:51:31.536Z,1016.10
2018-12-13T11:52:31.540Z,1016.12
2018-12-13T11:53:31.532Z,1016.11
2018-12-13T11:54:31.529Z,1016.20
2018-12-13T11:55:31.500Z,1016.09
2018-12-13T11:56:31.482Z,1016.09
2018-12-13T11:57:31.491Z,1016.14
2018-12-13T11:58:32.173Z,1016.06
2018-12-13T11:59:32.180Z,1016.08
2018-12-13T12:00:31.448Z,1016.06
2018-12-13T12:01:31.435Z,1016.14
2018-12-13T12:02:31.695Z,1016.11
2018-12-13T12:03:31.406Z,1016.09
2018-12-13T12:04:31.394Z,1016.11
2018-12-13T12:05:31.384Z,1016.09